Terminal Aerodrome Forecast
Issued by NWS Louisville, KY

Home | Current Version | Previous Version | Text Only | Print | Product List | Glossary On
Versions: 1 2 3 4 5 6 7 8 9 10 11 12 13 14 15 16 17 18
758
FTUS43 KLMK 282320
TAFLEX
TAF
KLEX 282320Z 2900/2924 33006KT P6SM OVC040
      TEMPO 2900/2903 BKN028
     FM290600 05006KT 5SM BR OVC012
     FM291600 07008KT P6SM BKN022
     FM291900 07010KT P6SM SCT025 BKN200=

USA.gov is the U.S. government's official web portal to all federal, state and local government web resources and services.